Tinsdal — V2AJ2 — position and weather

sailwx.info

Track history (hours):
 
Tides and Currents Weather Stations Pressure Air Temp Water Temp Dewpoint Dewpoint Depression Visibility Wind Speed Wind Dir Waves Ship Positions

Tinsdal

Last reported at 2017-Aug-19 13:00 UTC. Time now 2017-Aug-19 13:18 UTC.
Position N 46°30' W 001°47'.

Length 90 m; draft 4 m.

Type: Cargo ship. MMSI: 305573000.

Date/timePositionNaut miles runAvg speedWind from/ knotsBaromVisibWave heightAir tempDewpointWater temp
2017-Aug-19 13:00N 46°30' W 001°47'0 0.0
2017-Aug-19 12:30N 46°30' W 001°47'0 0.0
2017-Aug-19 12:00N 46°30' W 001°47'0 0.0
2017-Aug-19 11:30N 46°30' W 001°47'0 0.0
2017-Aug-19 11:00N 46°30' W 001°47'0 0.0
2017-Aug-19 10:30N 46°30' W 001°47'0 0.0
2017-Aug-19 10:00N 46°30' W 001°47'0 0.0
2017-Aug-19 09:30N 46°30' W 001°47'0 0.0
2017-Aug-19 09:00N 46°30' W 001°47'0 0.0
2017-Aug-19 08:30N 46°30' W 001°47'0 0.0
2017-Aug-19 08:00N 46°30' W 001°47'0 0.0
2017-Aug-19 07:30N 46°30' W 001°47'0 0.0
2017-Aug-19 07:00N 46°30' W 001°47'0 0.0
2017-Aug-19 06:30N 46°30' W 001°47'0 0.0
2017-Aug-19 06:00N 46°30' W 001°47'0 0.0
2017-Aug-19 05:30N 46°30' W 001°47'0 0.0
2017-Aug-19 05:00N 46°30' W 001°47'0 0.0
2017-Aug-19 04:30N 46°30' W 001°47'0 0.0
2017-Aug-19 04:00N 46°30' W 001°47'0 0.0
2017-Aug-19 03:30N 46°30' W 001°47'0 0.0
2017-Aug-19 03:00N 46°30' W 001°47'0 0.0
2017-Aug-19 02:30N 46°30' W 001°47'0 0.0
2017-Aug-19 02:00N 46°30' W 001°47'0 0.0
2017-Aug-19 01:30N 46°30' W 001°47'0 0.1
2017-Aug-19 01:00N 46°30' W 001°47'1 2.5
2017-Aug-19 00:30N 46°29' W 001°47'4 7.5
2017-Aug-19 00:00N 46°26' W 001°50'4 7.5
2017-Aug-18 23:30N 46°23' W 001°54'5 9.1
2017-Aug-18 23:00N 46°22' W 002°00'5 9.8
2017-Aug-18 22:30N 46°21' W 002°07'  
2017-Aug-12 02:28N 52°04' W 006°14'510.5
2017-Aug-12 02:00N 52°08' W 006°10'510.0
2017-Aug-12 01:30N 52°12' W 006°06'5 9.8
2017-Aug-12 01:00N 52°17' W 006°04'5 9.3
2017-Aug-12 00:30N 52°22' W 006°02'4 8.6
2017-Aug-12 00:00N 52°26' W 006°00'100 2.2
2017-Aug-10 02:10N 53°34' W 003°59'212.6
2017-Aug-10 02:00N 53°34' W 003°56'612.2
2017-Aug-10 01:30N 53°34' W 003°46'611.5
2017-Aug-10 01:00N 53°34' W 003°36'511.0
2017-Aug-10 00:30N 53°33' W 003°27'5 9.9
2017-Aug-10 00:01N 53°32' W 003°19'4 8.0
2017-Aug-09 23:31N 53°31' W 003°12'5 9.2
2017-Aug-09 23:00N 53°29' W 003°05'4 8.7
2017-Aug-09 22:30N 53°26' W 003°01'1 2.9
2017-Aug-09 22:00N 53°24' W 003°01'0 0.0
2017-Aug-09 21:30N 53°24' W 003°01'0 0.5
2017-Aug-09 21:00N 53°24' W 003°02'1 1.1
2017-Aug-09 20:30N 53°24' W 003°03'0 0.0
2017-Aug-09 19:58N 53°24' W 003°03'0 0.0
2017-Aug-09 19:28N 53°24' W 003°03'0 0.0
2017-Aug-09 18:58N 53°24' W 003°03'0 0.0
2017-Aug-09 18:25N 53°24' W 003°03'0 0.0
2017-Aug-09 17:58N 53°24' W 003°03'0 0.0
2017-Aug-09 17:25N 53°24' W 003°03'0 0.0
2017-Aug-09 16:58N 53°24' W 003°03'0 0.0
2017-Aug-09 16:28N 53°24' W 003°03'0 0.0
2017-Aug-09 15:58N 53°24' W 003°03'0 0.0
2017-Aug-09 15:25N 53°24' W 003°03'0 0.0
2017-Aug-09 14:49N 53°24' W 003°03'0 0.0
2017-Aug-09 14:28N 53°24' W 003°03'0 0.0
2017-Aug-09 13:58N 53°24' W 003°03'0 0.0
2017-Aug-09 13:28N 53°24' W 003°03'  
Track history (hours):
 
Tides and Currents Weather Stations Pressure Air Temp Water Temp Dewpoint Dewpoint Depression Visibility Wind Speed Wind Dir Waves Ship Positions

Tinsdal

Last reported at 2017-Aug-19 13:00 UTC. Time now 2017-Aug-19 13:18 UTC.
Position N 46°30' W 001°47'.

Length 90 m; draft 4 m.

Type: Cargo ship. MMSI: 305573000.

Date/timePositionNaut miles runAvg speedWind from/ knotsBaromVisibWave heightAir tempDewpointWater temp
2017-Aug-19 13:00N 46°30' W 001°47'0 0.0
2017-Aug-19 12:30N 46°30' W 001°47'0 0.0
2017-Aug-19 12:00N 46°30' W 001°47'0 0.0
2017-Aug-19 11:30N 46°30' W 001°47'0 0.0
2017-Aug-19 11:00N 46°30' W 001°47'0 0.0
2017-Aug-19 10:30N 46°30' W 001°47'0 0.0
2017-Aug-19 10:00N 46°30' W 001°47'0 0.0
2017-Aug-19 09:30N 46°30' W 001°47'0 0.0
2017-Aug-19 09:00N 46°30' W 001°47'0 0.0
2017-Aug-19 08:30N 46°30' W 001°47'0 0.0
2017-Aug-19 08:00N 46°30' W 001°47'0 0.0
2017-Aug-19 07:30N 46°30' W 001°47'0 0.0
2017-Aug-19 07:00N 46°30' W 001°47'0 0.0
2017-Aug-19 06:30N 46°30' W 001°47'0 0.0
2017-Aug-19 06:00N 46°30' W 001°47'0 0.0
2017-Aug-19 05:30N 46°30' W 001°47'0 0.0
2017-Aug-19 05:00N 46°30' W 001°47'0 0.0
2017-Aug-19 04:30N 46°30' W 001°47'0 0.0
2017-Aug-19 04:00N 46°30' W 001°47'0 0.0
2017-Aug-19 03:30N 46°30' W 001°47'0 0.0
2017-Aug-19 03:00N 46°30' W 001°47'0 0.0
2017-Aug-19 02:30N 46°30' W 001°47'0 0.0
2017-Aug-19 02:00N 46°30' W 001°47'0 0.0
2017-Aug-19 01:30N 46°30' W 001°47'0 0.1
2017-Aug-19 01:00N 46°30' W 001°47'1 2.5
2017-Aug-19 00:30N 46°29' W 001°47'4 7.5
2017-Aug-19 00:00N 46°26' W 001°50'4 7.5
2017-Aug-18 23:30N 46°23' W 001°54'5 9.1
2017-Aug-18 23:00N 46°22' W 002°00'5 9.8
2017-Aug-18 22:30N 46°21' W 002°07'  
2017-Aug-12 02:28N 52°04' W 006°14'510.5
2017-Aug-12 02:00N 52°08' W 006°10'510.0
2017-Aug-12 01:30N 52°12' W 006°06'5 9.8
2017-Aug-12 01:00N 52°17' W 006°04'5 9.3
2017-Aug-12 00:30N 52°22' W 006°02'4 8.6
2017-Aug-12 00:00N 52°26' W 006°00'100 2.2
2017-Aug-10 02:10N 53°34' W 003°59'212.6
2017-Aug-10 02:00N 53°34' W 003°56'612.2
2017-Aug-10 01:30N 53°34' W 003°46'611.5
2017-Aug-10 01:00N 53°34' W 003°36'511.0
2017-Aug-10 00:30N 53°33' W 003°27'5 9.9
2017-Aug-10 00:01N 53°32' W 003°19'4 8.0
2017-Aug-09 23:31N 53°31' W 003°12'5 9.2
2017-Aug-09 23:00N 53°29' W 003°05'4 8.7
2017-Aug-09 22:30N 53°26' W 003°01'1 2.9
2017-Aug-09 22:00N 53°24' W 003°01'0 0.0
2017-Aug-09 21:30N 53°24' W 003°01'0 0.5
2017-Aug-09 21:00N 53°24' W 003°02'1 1.1
2017-Aug-09 20:30N 53°24' W 003°03'0 0.0
2017-Aug-09 19:58N 53°24' W 003°03'0 0.0
2017-Aug-09 19:28N 53°24' W 003°03'0 0.0
2017-Aug-09 18:58N 53°24' W 003°03'0 0.0
2017-Aug-09 18:25N 53°24' W 003°03'0 0.0
2017-Aug-09 17:58N 53°24' W 003°03'0 0.0
2017-Aug-09 17:25N 53°24' W 003°03'0 0.0
2017-Aug-09 16:58N 53°24' W 003°03'0 0.0
2017-Aug-09 16:28N 53°24' W 003°03'0 0.0
2017-Aug-09 15:58N 53°24' W 003°03'0 0.0
2017-Aug-09 15:25N 53°24' W 003°03'0 0.0
2017-Aug-09 14:49N 53°24' W 003°03'0 0.0
2017-Aug-09 14:28N 53°24' W 003°03'0 0.0
2017-Aug-09 13:58N 53°24' W 003°03'0 0.0
2017-Aug-09 13:28N 53°24' W 003°03'  

Dump ship's entire track history